Tiempo atmosférico en la estación meteorológica de Santibañez De Vidriales, Zamora (737 m.)



Fecha
DESCASC
Temp. máxima en grados centígrados (hora)
DESCASC
Temp. mínima en grados centígrados (hora)
DESCASC
Temp. media en grados centígrados
DESCASC
Racha de viento máxima en m/sg (hora)
DESCASC
Velocidad máxima media en intervalos de 10 minutos(hora)
DESCASC
Precipitaciones diarias en mm
DESCASC
Precipitaciones de 00:00 a 06:00 en mm
DESCASC
Precipitaciones de 06:00 a 12:00 en mm
DESCASC
Precipitaciones de 12:00 a 18:00 en mm
DESCASC
Precipitaciones de 18:00 a 24:00 en mm
DESCASC
29-12-2019 12.7 (16:10) -3.6 (-00:0) 4.5 2.22 (14:20) 1.39 (13:50) 0 0 0 0 0
28-12-2019 12.5 (16:00) -4.2 (-00:0) 4.2 2.78 (17:10) 1.94 (19:30) 0 0 0 0 0
09-01-2020 12.3 (13:40) -2.7 (-00:0) 4.8 14.44 (15:30) 9.17 (15:30) 0 0 0 0 0
16-01-2020 11.8 (12:30) 6.7 (00:00) 9.3 15.83 (13:20) 10.83 (12:50) 0.4 0 0 0 0.4
15-01-2020 11.5 (16:10) 6.4 (00:00) 9 13.89 (04:10) 9.17 (09:30) 2 0.2 1.6 0 0.2
08-01-2020 10.9 (16:30) -4.3 (-00:0) 3.3 2.5 (12:10) 1.39 (21:10) 0.2 0 0.2 0 0
31-12-2019 10.8 (16:00) -3.8 (-00:0) 3.5 3.33 (17:00) 2.22 (17:00) 0.2 0 0.2 0 0
18-01-2020 10.5 (16:20) 1.8 (00:00) 6.1 15.83 (16:40) 8.89 (16:50) 1.4 0 0.8 0.6 0
05-01-2020 10.4 (16:20) -4.2 (-00:0) 3.1 3.06 (20:40) 1.94 (18:50) 0.2 0 0.2 0 0
14-01-2020 9.7 (16:00) 2.1 (00:00) 5.9 11.39 (22:20) 7.22 (23:59) 0 0 0 0 0
22-01-2020 9.5 (14:10) 3 (00:00) 6.3 11.94 (00:40) 7.5 (00:40) 1.4 0 1.2 0.2 0
17-01-2020 9.3 (15:20) 2 (00:00) 5.7 8.61 (01:30) 5.28 (01:30) 3.6 3.6 0 0 0
10-01-2020 9.2 (15:30) -1.1 (-00:0) 4 6.11 (13:20) 4.17 (15:10) 0 0 0 0 0
21-01-2020 8.9 (17:10) -1 (-00:0) 3.9 14.72 (17:30) 8.89 (17:30) 0 0 0 0 0
19-01-2020 8.7 (14:50) 0.5 (00:00) 4.6 19.72 (14:00) 13.61 (14:10) 0 0 0 0 0
11-01-2020 8.6 (16:10) -4.9 (-00:0) 1.9 3.61 (16:40) 2.5 (16:40) 0 0 0 0 0
23-01-2020 8.3 (15:50) 1.4 (00:00) 4.9 6.39 (04:50) 4.17 (04:10) 0 0 0 0 0
01-01-2020 8.2 (15:30) -5.7 (-00:0) 1.3 5.28 (17:00) 3.33 (16:00) 0 0 0 0 0
27-12-2019 7.3 (16:10) -2.1 (-00:0) 2.6 3.89 (03:00) 2.5 (05:30) 0 0 0 0 0
25-01-2020 7.1 (15:40) 1 (00:00) 4 2.78 (11:40) 1.67 (11:40) 0.2 0 0 0.2 0
24-01-2020 6.6 (16:10) 2.9 (00:00) 4.8 2.22 (14:10) 1.67 (14:40) 0.2 0.2 0 0 0
20-01-2020 6.1 (14:10) -1.3 (-00:0) 2.4 14.44 (13:00) 8.89 (13:10) 0 0 0 0 0
04-01-2020 3.7 (14:30) -0.4 (00:00) 1.7 4.17 (22:10) 3.06 (22:10) 0 0 0 0 0
07-01-2020 3.6 (16:10) -4.1 (-00:0) -0.3 3.89 (14:30) 2.5 (14:40) 0.2 0 0.2 0 0
03-01-2020 3.4 (16:20) -1.7 (-00:0) 0.9 2.5 (19:00) 1.11 (01:00) 0.2 0 0.2 0 0
13-01-2020 2.1 (22:50) -4.5 (-00:0) -1.2 6.11 (21:40) 3.89 (21:50) 0.2 0 0 0.2 0
02-01-2020 0.1 (15:20) -5.2 (-00:0) -2.5 2.5 (16:10) 1.39 (16:00) 0.2 0 0 0.2 0
06-01-2020 -0.1 (17:00) -4.1 (-00:0) -2.1 1.67 (17:20) 0.83 (17:20) 0 0 0 0 0
12-01-2020 -1.3 (16:50) -3.7 (10:40) -2.5 1.67 (01:20) 0.83 (01:20) 0 0 0 0 0
30-12-2019 -- (--) -- (--) -- -- (--) -- (--) -- 0 0 0 --

Gráficas

Temp. máximas Temp. mínimas Temp. medias Precipitaciones Rachas de viento máximas Velocidades máximas media en intervalos de 10 minutos

Datos horarios

Fecha y hora oficial Temperatura (ºC) Velocidad del viento (km/h) Dirección del viento Racha (km/h) Dirección de racha Precipitación (mm) Presión (hPa) Tendencia (hPa) Humedad (%)
2020-01-25 23:00:00 2.5 2 Este 3 Sur 0 -- -- 95
2020-01-25 22:00:00 3.2 0 Calma 4 Este 0 -- -- 95
2020-01-25 21:00:00 3.5 0 Calma 9 Oeste 0 -- -- 93
2020-01-25 20:00:00 4.1 5 Oeste 8 Oeste 0 -- -- 92
2020-01-25 19:00:00 5.6 3 Sur 4 Sudeste 0 -- -- 88
2020-01-25 18:00:00 6.7 4 Sudeste 7 Sudeste 0 -- -- 87
2020-01-25 17:00:00 6.9 0 Calma 6 Noroeste 0 -- -- 85
2020-01-25 16:00:00 7.1 3 Norte 6 Norte 0 -- -- 84
2020-01-25 15:00:00 6.7 0 Calma 5 Norte 0 -- -- 87
2020-01-25 14:00:00 6.2 0 Calma 3 Norte 0 -- -- 92
2020-01-25 13:00:00 5.4 2 Sudeste 6 Sudeste 0.2 -- -- 94
2020-01-25 12:00:00 5.3 4 Sudeste 10 Este 0 -- -- 95
2020-01-25 11:00:00 5.2 4 Nordeste 8 Nordeste 0 -- -- 97
2020-01-25 10:00:00 4.4 0 Calma 6 Nordeste 0 -- -- 98
2020-01-25 09:00:00 4 4 Nordeste 9 Nordeste 0 -- -- 98
2020-01-25 08:00:00 3.1 4 Norte 7 Norte 0 -- -- 98
2020-01-25 07:00:00 2 3 Noroeste 6 Noroeste 0 -- -- 98
2020-01-25 06:00:00 1.9 3 Sudoeste 4 Sudoeste 0 -- -- 97
2020-01-25 05:00:00 2.6 0 Calma 5 Noroeste 0 -- -- 96
2020-01-25 04:00:00 3.2 3 Noroeste 5 Noroeste 0 -- -- 96
2020-01-25 03:00:00 3.2 0 Calma 2 Oeste 0 -- -- 97
2020-01-25 02:00:00 3.1 3 Norte 4 Norte 0 -- -- 97
2020-01-25 01:00:00 2.8 2 Sur 5 Sur 0 -- -- 96
2020-01-25 00:00:00 2.9 4 Noroeste 6 Noroeste 0 -- -- 96
2020-01-24 23:00:00 3.4 3 Oeste 5 Norte 0 -- -- 95
2020-01-24 22:00:00 4.4 0 Calma 4 Noroeste 0 -- -- 94
2020-01-24 21:00:00 5 4 Nordeste 6 Norte 0 -- -- 93
2020-01-24 20:00:00 5.5 3 Sudeste 5 Este 0 -- -- 91
2020-01-24 19:00:00 6.2 3 Nordeste -- -- 0 -- -- 90
2020-01-24 18:00:00 6.5 2 Oeste 4 Norte 0 -- -- 87
2020-01-24 17:00:00 6.6 3 Norte 6 Nordeste 0 -- -- 86
2020-01-24 16:00:00 6.5 3 Este 7 Este 0 -- -- 86
2020-01-24 15:00:00 6.1 4 Nordeste 8 Nordeste 0 -- -- 89
2020-01-24 14:00:00 6.3 4 Norte 8 Norte 0 -- -- 85
2020-01-24 13:00:00 6.2 0 Calma 5 Este 0 -- -- 85
2020-01-24 12:00:00 5.6 0 Calma 3 Norte 0 -- -- 88
2020-01-24 11:00:00 4.8 0 Calma 4 Nordeste 0 -- -- 90
2020-01-24 10:00:00 3.6 2 Norte 6 Norte 0 -- -- 93
2020-01-24 09:00:00 3.4 4 Noroeste 6 Noroeste 0 -- -- 93
2020-01-24 08:00:00 3.5 0 Calma 2 Norte 0 -- -- 93
2020-01-24 07:00:00 3.5 0 Calma 3 Norte 0 -- -- 93
2020-01-24 06:00:00 3.7 0 Calma 2 Norte 0.2 -- -- 92
2020-01-24 05:00:00 3.9 2 Noroeste 3 Noroeste 0 -- -- 90
2020-01-24 04:00:00 4.3 2 Noroeste 4 Norte 0 -- -- 88
2020-01-24 03:00:00 4.3 0 Calma 7 Norte 0 -- -- 88
2020-01-24 02:00:00 4.1 2 Norte 5 Norte 0 -- -- 88
2020-01-24 01:00:00 4.3 3 Norte 8 Nordeste 0 -- -- 87
2020-01-24 00:00:00 3.9 4 Norte 6 Norte 0 -- -- 88
2020-01-23 23:00:00 4.2 4 Norte 8 Norte 0 -- -- 87
2020-01-23 22:00:00 3.6 4 Norte 5 Norte 0 -- -- 86
2020-01-23 21:00:00 2.9 4 Sudoeste 5 Norte 0 -- -- 87
2020-01-23 20:00:00 3.2 5 Norte 7 Norte 0 -- -- 85
2020-01-23 19:00:00 5.1 4 Norte 5 Norte 0 -- -- 78
2020-01-23 18:00:00 7.4 2 Sudeste 9 Este 0 -- -- 70
2020-01-23 17:00:00 8 6 Nordeste 19 Nordeste 0 -- -- 67
2020-01-23 16:00:00 8.2 14 Nordeste 21 Nordeste 0 -- -- 66
2020-01-23 15:00:00 7.8 10 Nordeste 21 Nordeste 0 -- -- 71
2020-01-23 14:00:00 7.1 10 Nordeste 17 Nordeste 0 -- -- 72
2020-01-23 13:00:00 5.7 8 Nordeste 17 Nordeste 0 -- -- 76
2020-01-23 12:00:00 4.7 10 Nordeste 17 Nordeste 0 -- -- 80
2020-01-23 11:00:00 3.9 8 Norte 14 Nordeste 0 -- -- 84
2020-01-23 10:00:00 2.5 6 Norte 11 Nordeste 0 -- -- 89
2020-01-23 09:00:00 1.5 3 Nordeste 10 Nordeste 0 -- -- 90
2020-01-23 08:00:00 1.6 5 Nordeste 13 Nordeste 0 -- -- 90
2020-01-23 07:00:00 1.9 3 Este 8 Norte 0 -- -- 90
2020-01-23 06:00:00 2.3 6 Nordeste 9 Nordeste 0 -- -- 89
2020-01-23 05:00:00 2.8 7 Nordeste 23 Norte 0 -- -- 88
2020-01-23 04:00:00 3 14 Norte 19 Norte 0 -- -- 90
2020-01-23 03:00:00 2.8 12 Norte 15 Norte 0 -- -- 90
2020-01-23 02:00:00 2 6 Norte 13 Norte 0 -- -- 91
2020-01-23 01:00:00 2.9 6 Norte 12 Norte 0 -- -- 87
2020-01-23 00:00:00 4.3 5 Nordeste 13 Nordeste 0 -- -- 84
2020-01-22 23:00:00 4.7 6 Este 13 Este 0 -- -- 83
2020-01-22 22:00:00 5.2 4 Este 19 Este 0 -- -- 79
2020-01-22 21:00:00 5.3 3 Nordeste 8 Nordeste 0 -- -- 80
2020-01-22 20:00:00 4.8 3 Nordeste 10 Norte 0 -- -- 79
2020-01-22 19:00:00 5.7 5 Nordeste 17 Este 0 -- -- 76
2020-01-22 18:00:00 8 12 Este 23 Este 0 -- -- 66
2020-01-22 17:00:00 8.7 15 Este 27 Este 0 -- -- 62
2020-01-22 16:00:00 9 16 Este 27 Nordeste 0 -- -- 63
2020-01-22 15:00:00 9.2 19 Este 36 Este 0 -- -- 62
2020-01-22 14:00:00 8.9 17 Nordeste 34 Nordeste 0 -- -- 71
2020-01-22 13:00:00 7.2 19 Nordeste 35 Nordeste 0.2 -- -- 76
2020-01-22 12:00:00 6.9 17 Nordeste 28 Nordeste 0 -- -- 83
2020-01-22 11:00:00 5.5 17 Nordeste 26 Nordeste 0 -- -- 86
2020-01-22 10:00:00 4.5 12 Nordeste 33 Nordeste 0.8 -- -- 92
2020-01-22 09:00:00 4.5 14 Nordeste 24 Nordeste 0.4 -- -- 90
2020-01-22 08:00:00 4.7 14 Nordeste 22 Nordeste 0 -- -- 83
2020-01-22 07:00:00 3.8 4 Nordeste 13 Nordeste 0 -- -- 83
2020-01-22 06:00:00 3.2 2 Nordeste 8 Norte 0 -- -- 79
2020-01-22 05:00:00 3.1 4 Sudeste 10 Este 0 -- -- 78
2020-01-22 04:00:00 3.8 6 Nordeste 15 Norte 0 -- -- 73
2020-01-22 03:00:00 4.7 9 Nordeste 33 Nordeste 0 -- -- 68
2020-01-22 02:00:00 5.3 18 Nordeste 39 Nordeste 0 -- -- 65
2020-01-22 01:00:00 5.9 23 Nordeste 43 Nordeste 0 -- -- 60
2020-01-22 00:00:00 6.2 21 Nordeste 36 Nordeste 0 -- -- 59
2020-01-21 23:00:00 7.3 19 Nordeste 40 Nordeste 0 -- -- 57
2020-01-21 22:00:00 7.2 24 Nordeste 44 Nordeste 0 -- -- 58
2020-01-21 21:00:00 6.9 18 Nordeste 36 Nordeste 0 -- -- 60
2020-01-21 20:00:00 6 22 Nordeste 34 Nordeste 0 -- -- 64
2020-01-21 19:00:00 6.7 19 Nordeste 42 Nordeste 0 -- -- 66
2020-01-21 18:00:00 8 24 Nordeste 53 Nordeste 0 -- -- 61
2020-01-21 17:00:00 8.7 20 Nordeste 38 Nordeste 0 -- -- 59
2020-01-21 16:00:00 8.5 16 Nordeste 37 Nordeste 0 -- -- 58
2020-01-21 15:00:00 7.3 21 Nordeste 43 Nordeste 0 -- -- 65
2020-01-21 14:00:00 6.1 20 Nordeste 33 Nordeste 0 -- -- 69
2020-01-21 13:00:00 5.3 21 Nordeste 40 Nordeste 0 -- -- 63
2020-01-21 12:00:00 5.3 21 Nordeste 36 Nordeste 0 -- -- 60
2020-01-21 11:00:00 4.6 13 Nordeste 20 Nordeste 0 -- -- 63
2020-01-21 10:00:00 1.3 3 Noroeste 12 Nordeste 0 -- -- 76
2020-01-21 09:00:00 0.3 4 Nordeste 19 Nordeste 0 -- -- 77
2020-01-21 08:00:00 -0.4 14 Nordeste 20 Nordeste 0 -- -- 79
2020-01-21 07:00:00 0 14 Norte 21 Nordeste 0 -- -- 77
2020-01-21 06:00:00 0.3 17 Norte 27 Norte 0 -- -- 75
2020-01-21 05:00:00 -0.6 5 Norte 18 Norte 0 -- -- 76
2020-01-21 04:00:00 -0.4 9 Norte 17 Norte 0 -- -- 75
2020-01-21 03:00:00 -0.7 8 Norte 16 Norte 0 -- -- 76
2020-01-21 02:00:00 -0.4 9 Norte 15 Norte 0 -- -- 75
2020-01-21 01:00:00 -0.9 5 Noroeste 9 Nordeste 0 -- -- 74
2020-01-21 00:00:00 0.3 7 Nordeste 15 Norte 0 -- -- 70
2020-01-20 23:00:00 0.7 5 Nordeste 18 Nordeste 0 -- -- 64
2020-01-20 22:00:00 1.7 11 Nordeste 21 Nordeste 0 -- -- 59
2020-01-20 21:00:00 2.4 9 Nordeste 25 Nordeste 0 -- -- 55
2020-01-20 20:00:00 3.1 13 Nordeste 30 Nordeste 0 -- -- 54
2020-01-20 19:00:00 3.5 17 Norte 35 Nordeste 0 -- -- 52
2020-01-20 18:00:00 4.3 24 Nordeste 40 Nordeste 0 -- -- 47
2020-01-20 17:00:00 4.1 17 Nordeste 27 Este 0 -- -- 48
2020-01-20 16:00:00 4.1 19 Este 40 Este 0 -- -- 47
2020-01-20 15:00:00 5.3 28 Este 40 Este 0 -- -- 38
2020-01-20 14:00:00 6 26 Nordeste 48 Nordeste 0 -- -- 34
2020-01-20 13:00:00 5.3 29 Nordeste 52 Nordeste 0 -- -- 38
2020-01-20 12:00:00 3.9 19 Nordeste 35 Nordeste 0 -- -- 49
2020-01-20 11:00:00 3 22 Nordeste 40 Nordeste 0 -- -- 53
2020-01-20 10:00:00 1.3 16 Nordeste 29 Nordeste 0 -- -- 58
2020-01-20 09:00:00 -1.2 10 Nordeste 17 Nordeste 0 -- -- 73
2020-01-20 08:00:00 -0.8 5 Este 32 Nordeste 0 -- -- 70
2020-01-20 07:00:00 -0.1 12 Este 24 Este 0 -- -- 68
2020-01-20 06:00:00 0.5 19 Nordeste 30 Nordeste 0 -- -- 63
2020-01-20 05:00:00 0.8 12 Nordeste 38 Nordeste 0 -- -- 61
2020-01-20 04:00:00 0.5 12 Norte 23 Nordeste 0 -- -- 64
2020-01-20 03:00:00 1 13 Nordeste 22 Nordeste 0 -- -- 62
2020-01-20 02:00:00 1 12 Nordeste 28 Nordeste 0 -- -- 62
2020-01-20 01:00:00 1.3 12 Nordeste 31 Nordeste 0 -- -- 59
2020-01-20 00:00:00 2.1 21 Nordeste 47 Nordeste 0 -- -- 56
2020-01-19 23:00:00 2.5 23 Nordeste 45 Nordeste 0 -- -- 54
2020-01-19 22:00:00 2.4 21 Nordeste 43 Nordeste 0 -- -- 52
2020-01-19 21:00:00 2.2 17 Norte 32 Nordeste 0 -- -- 53
2020-01-19 20:00:00 3.1 26 Nordeste 46 Nordeste 0 -- -- 47
2020-01-19 19:00:00 3.6 27 Nordeste 43 Nordeste 0 -- -- 47
2020-01-19 18:00:00 5 29 Nordeste 49 Nordeste 0 -- -- 45
2020-01-19 17:00:00 6.8 32 Nordeste 55 Nordeste 0 -- -- 45
2020-01-19 16:00:00 8 37 Nordeste 62 Norte 0 -- -- 39
2020-01-19 15:00:00 8.4 42 Norte 68 Nordeste 0 -- -- 39
2020-01-19 14:00:00 8.3 48 Nordeste 71 Nordeste 0 -- -- 41
2020-01-19 13:00:00 7.8 38 Nordeste 60 Norte 0 -- -- 51
2020-01-19 12:00:00 7.3 36 Nordeste 63 Norte 0 -- -- 53
2020-01-19 11:00:00 6.4 27 Nordeste 41 Nordeste 0 -- -- 64
2020-01-19 10:00:00 5.1 21 Norte 31 Nordeste 0 -- -- 69
2020-01-19 09:00:00 4.7 21 Norte 35 Norte 0 -- -- 71
2020-01-19 08:00:00 5.2 24 Norte 44 Norte 0 -- -- 73
2020-01-19 07:00:00 4.8 20 Norte 32 Norte 0 -- -- 80
2020-01-19 06:00:00 1.8 4 Noroeste 10 Oeste 0 -- -- 90
2020-01-19 05:00:00 1.4 5 Oeste 9 Noroeste 0 -- -- 90
2020-01-19 04:00:00 1.9 3 Norte 9 Norte 0 -- -- 91
2020-01-19 03:00:00 1.5 6 Norte 9 Norte 0 -- -- 92
2020-01-19 02:00:00 0.8 6 Norte 8 Norte 0 -- -- 94
2020-01-19 01:00:00 1.4 0 Calma 6 Norte 0 -- -- 92
2020-01-19 00:00:00 1.8 0 Calma 8 Norte 0 -- -- 90
2020-01-18 23:00:00 3.4 2 Sudoeste 16 Oeste 0 -- -- 87
2020-01-18 22:00:00 4.3 11 Oeste 20 Oeste 0 -- -- 83
2020-01-18 21:00:00 4.2 4 Sudoeste 14 Noroeste 0 -- -- 81
2020-01-18 20:00:00 4.4 6 Noroeste 22 Sudoeste 0 -- -- 80
2020-01-18 19:00:00 5.8 10 Oeste 25 Oeste 0 -- -- 81
2020-01-18 18:00:00 8.2 13 Oeste 48 Oeste 0.2 -- -- 69
2020-01-18 17:00:00 10.2 28 Oeste 57 Oeste 0 -- -- 80
2020-01-18 16:00:00 9.4 17 Sudoeste 36 Oeste 0 -- -- 94
2020-01-18 15:00:00 8.1 17 Oeste 32 Sudoeste 0 -- -- 94
2020-01-18 14:00:00 7.5 12 Sudoeste 22 Oeste 0 -- -- 96
2020-01-18 13:00:00 6.1 5 Sudoeste 10 Sudoeste 0.4 -- -- 97
2020-01-18 12:00:00 5.5 7 Sudoeste 9 Sudoeste 0 -- -- 97
2020-01-18 11:00:00 4.6 4 Sur 6 Sur 0.2 -- -- 97
2020-01-18 10:00:00 3.6 2 Norte 4 Norte 0.2 -- -- 96
2020-01-18 09:00:00 3.4 0 Calma 4 Este 0.2 -- -- 96
2020-01-18 08:00:00 3.2 3 Este 4 Sudeste 0.2 -- -- 95
2020-01-18 07:00:00 3.1 0 Calma 2 Sur 0 -- -- 94
2020-01-18 06:00:00 2.9 0 Calma 4 Noroeste 0 -- -- 93
2020-01-18 05:00:00 3.3 3 Nordeste 10 Sudoeste 0 -- -- 92
2020-01-18 04:00:00 3.2 6 Sur 9 Sudoeste 0 -- -- 94
2020-01-18 03:00:00 3.2 0 Calma 6 Este 0 -- -- 92
2020-01-18 02:00:00 3.1 3 Sur 7 Oeste 0 -- -- 91
2020-01-18 01:00:00 3.3 4 Sudoeste 6 Sudoeste 0 -- -- 92
2020-01-18 00:00:00 3.6 2 Sur 4 Nordeste 0 -- -- 92
2020-01-17 23:00:00 4 0 Calma 5 Este 0 -- -- 89
2020-01-17 22:00:00 4.4 0 Calma 5 Sur 0 -- -- 83
2020-01-17 21:00:00 4.7 0 Calma 4 Oeste 0 -- -- 83
2020-01-17 20:00:00 5.2 0 Calma 7 Norte 0 -- -- 78
2020-01-17 19:00:00 5.5 4 Nordeste 13 Sudoeste 0 -- -- 78
2020-01-17 18:00:00 6.8 8 Sudoeste 18 Sudoeste 0 -- -- 69
2020-01-17 17:00:00 8.2 12 Sudoeste 21 Sudoeste 0 -- -- 62
2020-01-17 16:00:00 9 10 Sudoeste 21 Sudoeste 0 -- -- 54
2020-01-17 15:00:00 9.1 10 Oeste 24 Sudoeste 0 -- -- 58
2020-01-17 14:00:00 8.3 15 Sudoeste 27 Sudoeste 0 -- -- 66
2020-01-17 13:00:00 8.6 10 Sudoeste 21 Oeste 0 -- -- 67
2020-01-17 12:00:00 7.7 12 Oeste 21 Oeste 0 -- -- 74
2020-01-17 11:00:00 6.1 10 Oeste 17 Oeste 0 -- -- 81
2020-01-17 10:00:00 4.7 9 Oeste 25 Oeste 0 -- -- 85
2020-01-17 09:00:00 2.1 9 Noroeste 15 Noroeste 0 -- -- 93
2020-01-17 08:00:00 3.4 6 Oeste 10 Oeste 0 -- -- 93
2020-01-17 07:00:00 3.8 2 Norte 16 Oeste 0 -- -- 93
2020-01-17 06:00:00 4.8 13 Sudoeste 22 Sudoeste 0 -- -- 93
2020-01-17 05:00:00 4.4 11 Sudoeste 17 Sudoeste 0 -- -- 93
2020-01-17 04:00:00 5.1 12 Sudoeste 26 Noroeste 2 -- -- 93
2020-01-17 03:00:00 6.7 11 Oeste 30 Oeste 1.6 -- -- 91
2020-01-17 02:00:00 7 15 Sudoeste 31 Sudoeste 0 -- -- 89
2020-01-17 01:00:00 7.1 11 Sudoeste 20 Sudoeste 0 -- -- 89
2020-01-17 00:00:00 7.1 15 Sudoeste 24 Sudoeste 0 -- -- 88
2020-01-16 23:00:00 7 18 Sudoeste 28 Sudoeste 0 -- -- 88
2020-01-16 22:00:00 7.9 17 Sudoeste 28 Sudoeste 0 -- -- 88
2020-01-16 21:00:00 7.8 10 Sur 31 Sur 0 -- -- 91
2020-01-16 20:00:00 7.9 17 Sur 27 Sur 0.2 -- -- 87
2020-01-16 19:00:00 8.3 15 Sudoeste 40 Sur 0.2 -- -- 82
2020-01-16 18:00:00 9.9 27 Sudoeste 45 Sudoeste 0 -- -- 69
2020-01-16 17:00:00 10.6 29 Sur 47 Sur 0 -- -- 68
2020-01-16 16:00:00 11.1 28 Sur 44 Sur 0 -- -- 68
2020-01-16 15:00:00 11.1 29 Sur 47 Sudoeste 0 -- -- 66
2020-01-16 14:00:00 11.6 31 Sudoeste 57 Sudoeste 0 -- -- 68
2020-01-16 13:00:00 11.7 35 Sudoeste 55 Sudoeste 0 -- -- 67
2020-01-16 12:00:00 11.2 31 Sudoeste 46 Sudoeste 0 -- -- 73
2020-01-16 11:00:00 10 28 Sur 45 Sudoeste 0 -- -- 84
2020-01-16 10:00:00 9.4 27 Sur 35 Sur 0 -- -- 89
2020-01-16 09:00:00 9.6 21 Sur 34 Sur 0 -- -- 87
2020-01-16 08:00:00 9.7 22 Sur 38 Sur 0 -- -- 86
2020-01-16 07:00:00 9.7 21 Sudoeste 39 Sudoeste 0 -- -- 87
2020-01-16 06:00:00 9.6 24 Sudoeste 40 Sur 0 -- -- 88
2020-01-16 05:00:00 9.3 18 Sudoeste 33 Sudoeste 0 -- -- 90
2020-01-16 04:00:00 9.3 18 Sur 30 Sur 0 -- -- 91
2020-01-16 03:00:00 9.4 9 Sur 28 Sudoeste 0 -- -- 90
2020-01-16 02:00:00 9.5 14 Sudoeste 27 Sur 0 -- -- 90
2020-01-16 01:00:00 9.5 17 Sur 28 Sur 0 -- -- 90
2020-01-16 00:00:00 9.6 20 Sur 30 Sur 0 -- -- 91
2020-01-15 23:00:00 9.2 15 Sur 28 Sur 0 -- -- 93
2020-01-15 22:00:00 8.6 9 Sur 20 Sur 0.2 -- -- 95
2020-01-15 21:00:00 7.6 4 Este 9 Sudeste 0 -- -- 94
2020-01-15 20:00:00 6.8 2 Noroeste 9 Sudeste 0 -- -- 89
2020-01-15 19:00:00 8.4 3 Sur 13 Sudoeste 0 -- -- 84
2020-01-15 18:00:00 9.9 11 Sudoeste 32 Sudoeste 0 -- -- 78
2020-01-15 17:00:00 11.2 19 Sudoeste 30 Sudoeste 0 -- -- 75
2020-01-15 16:00:00 11.3 22 Sudoeste 32 Sudoeste 0 -- -- 76
2020-01-15 15:00:00 9.8 7 Oeste 21 Sudoeste 0 -- -- 83
2020-01-15 14:00:00 9.4 16 Sudoeste 28 Sudoeste 0 -- -- 84
2020-01-15 13:00:00 9.6 19 Sudoeste 33 Sudoeste 0 -- -- 82
2020-01-15 12:00:00 7.8 7 Oeste 19 Oeste 0 -- -- 88
2020-01-15 11:00:00 6.5 8 Noroeste 34 Oeste 0.2 -- -- 89
2020-01-15 10:00:00 6.8 26 Sudoeste 48 Sudoeste 1.2 -- -- 88
2020-01-15 09:00:00 7.6 27 Sur 41 Sur 0 -- -- 91
2020-01-15 08:00:00 7.8 24 Sur 40 Sur 0 -- -- 89
2020-01-15 07:00:00 7.5 16 Sur 37 Sur 0.2 -- -- 91
2020-01-15 06:00:00 7.6 23 Sur 37 Sur 0 -- -- 91
2020-01-15 05:00:00 7.4 27 Sudoeste 50 Sudoeste 0 -- -- 91
2020-01-15 04:00:00 7.5 31 Sudoeste 47 Sur 0 -- -- 90
2020-01-15 03:00:00 7.4 24 Sur 39 Sudoeste 0.2 -- -- 91
2020-01-15 02:00:00 7.2 23 Sur 39 Sudoeste 0 -- -- 91
2020-01-15 01:00:00 6.7 24 Sur 35 Sudoeste 0 -- -- 92
2020-01-15 00:00:00 6.6 26 Sur 37 Sudoeste 0 -- -- 91
2020-01-14 23:00:00 6.5 23 Sur 41 Sur 0 -- -- 89
2020-01-14 22:00:00 6.3 21 Sur 33 Sudoeste 0 -- -- 90
2020-01-14 21:00:00 6.3 23 Sur 35 Sur 0 -- -- 90
2020-01-14 20:00:00 6.5 10 Sudoeste 27 Sur 0 -- -- 86
2020-01-14 19:00:00 6.4 21 Sur 38 Sudoeste 0 -- -- 84
2020-01-14 18:00:00 7.5 17 Sur 30 Sur 0 -- -- 80
2020-01-14 17:00:00 8.4 16 Sudoeste 33 Sudoeste 0 -- -- 76
2020-01-14 16:00:00 9.7 18 Sudoeste 33 Sudoeste 0 -- -- 71
2020-01-14 15:00:00 8.1 16 Sudoeste 26 Sudoeste 0 -- -- 77
2020-01-14 14:00:00 6.7 18 Sudoeste 25 Sudoeste 0 -- -- 85
2020-01-14 13:00:00 6.7 14 Sudoeste 25 Sudoeste 0 -- -- 84
2020-01-14 12:00:00 5.6 17 Sudoeste 23 Sudoeste 0 -- -- 86
2020-01-14 11:00:00 4.6 12 Sudoeste 18 Sudoeste 0 -- -- 89
2020-01-14 10:00:00 3.6 0 Calma 7 Sudoeste 0 -- -- 93
2020-01-14 09:00:00 3.1 6 Sudoeste 14 Sudoeste 0 -- -- 93
2020-01-14 08:00:00 3.2 7 Sudoeste 10 Sur 0 -- -- 92
2020-01-14 07:00:00 3.5 5 Sudoeste 9 Sudoeste 0 -- -- 94
2020-01-14 06:00:00 3.1 0 Calma 4 Sudoeste 0 -- -- 95
2020-01-14 05:00:00 3.3 3 Sudoeste 10 Oeste 0 -- -- 94
2020-01-14 04:00:00 3.3 3 Oeste 10 Sudoeste 0 -- -- 96
2020-01-14 03:00:00 3 2 Sudoeste 12 Oeste 0 -- -- 97
2020-01-14 02:00:00 2.8 5 Oeste 12 Oeste 0 -- -- 97
2020-01-14 01:00:00 2.8 9 Oeste 13 Oeste 0 -- -- 98
2020-01-14 00:00:00 2.1 4 Noroeste 5 Noroeste 0 -- -- 99
2020-01-13 23:00:00 2.1 3 Noroeste 20 Sudoeste 0 -- -- 99
2020-01-13 22:00:00 1.3 12 Sudoeste 22 Sudoeste 0 -- -- 99
2020-01-13 21:00:00 -0.2 6 Sur 10 Norte 0 -- -- 100
2020-01-13 20:00:00 -0.4 4 Norte 8 Norte 0 -- -- 100
2020-01-13 19:00:00 -0.9 4 Norte 6 Norte 0 -- -- 99
2020-01-13 18:00:00 0.7 0 Calma 6 Norte 0 -- -- 99
2020-01-13 17:00:00 0.7 0 Calma 9 Norte 0 -- -- 99
2020-01-13 16:00:00 0.1 4 Norte 8 Norte 0 -- -- 99
2020-01-13 15:00:00 -0.7 0 Calma -- -- 0.2 -- -- 99
2020-01-13 14:00:00 -2.1 0 Calma -- -- 0 -- -- 99
2020-01-13 13:00:00 -3.4 0 Calma -- -- 0 -- -- 98
2020-01-13 12:00:00 -4.1 0 Calma -- -- 0 -- -- 97
2020-01-13 11:00:00 -4.5 0 Calma -- -- 0 -- -- 97
2020-01-13 10:00:00 -4.4 0 Calma -- -- 0 -- -- 97
2020-01-13 09:00:00 -4.2 0 Calma -- -- 0 -- -- 97
2020-01-13 08:00:00 -4.3 0 Calma -- -- 0 -- -- 97
2020-01-13 07:00:00 -4 0 Calma -- -- 0 -- -- 97
2020-01-13 06:00:00 -4 0 Calma -- -- 0 -- -- 97
2020-01-13 05:00:00 -3.8 0 Calma -- -- 0 -- -- 97
2020-01-13 04:00:00 -3.4 0 Calma -- -- 0 -- -- 98
2020-01-13 03:00:00 -3.4 0 Calma -- -- 0 -- -- 98
2020-01-13 02:00:00 -3.1 0 Calma -- -- 0 -- -- 98
2020-01-13 01:00:00 -2.7 0 Calma -- -- 0 -- -- 98
2020-01-13 00:00:00 -2.7 0 Calma -- -- 0 -- -- 99
2020-01-12 23:00:00 -2.5 0 Calma -- -- 0 -- -- 98
2020-01-12 22:00:00 -1.9 0 Calma -- -- 0 -- -- 99
2020-01-12 21:00:00 -2 0 Calma -- -- 0 -- -- 99
2020-01-12 20:00:00 -1.9 0 Calma -- -- 0 -- -- 99
2020-01-12 19:00:00 -1.7 0 Calma -- -- 0 -- -- 98
2020-01-12 18:00:00 -1.5 0 Calma -- -- 0 -- -- 99
2020-01-12 17:00:00 -1.3 0 Calma -- -- 0 -- -- 99
2020-01-12 16:00:00 -1.5 0 Calma -- -- 0 -- -- 99
2020-01-12 15:00:00 -1.5 0 Calma -- -- 0 -- -- 98
2020-01-12 14:00:00 -1.8 0 Calma -- -- 0 -- -- 98
2020-01-12 13:00:00 -2 0 Calma -- -- 0 -- -- 98
2020-01-12 12:00:00 -2.5 0 Calma -- -- 0 -- -- 98
2020-01-12 11:00:00 -3.3 0 Calma -- -- 0 -- -- 98
2020-01-12 10:00:00 -3.4 0 Calma -- -- 0 -- -- 98
2020-01-12 09:00:00 -3.5 0 Calma -- -- 0 -- -- 97
2020-01-12 08:00:00 -3.5 0 Calma -- -- 0 -- -- 97
2020-01-12 07:00:00 -3.3 0 Calma -- -- 0 -- -- 98
2020-01-12 06:00:00 -3.2 0 Calma -- -- 0 -- -- 98
2020-01-12 05:00:00 -3 0 Calma 4 Nordeste 0 -- -- 97
2020-01-12 04:00:00 -2.8 2 Este 4 Nordeste 0 -- -- 97
2020-01-12 03:00:00 -2.4 0 Calma 4 Sudeste 0 -- -- 97
2020-01-12 02:00:00 -2.3 0 Calma 6 Este 0 -- -- 97
2020-01-12 01:00:00 -2 3 Sudeste 5 Sudeste 0 -- -- 96
2020-01-12 00:00:00 -1.5 0 Calma 3 Sur 0 -- -- 95
2020-01-11 23:00:00 -1.3 0 Calma 4 Noroeste 0 -- -- 93
2020-01-11 22:00:00 -0.9 4 Noroeste 6 Noroeste 0 -- -- 92
2020-01-11 21:00:00 0.7 2 Noroeste 4 Noroeste 0 -- -- 88
2020-01-11 20:00:00 2.1 2 Noroeste 6 Este 0 -- -- 87
2020-01-11 19:00:00 4.1 4 Sudeste 9 Sudeste 0 -- -- 80
2020-01-11 18:00:00 6.7 7 Sudeste 13 Sudeste 0 -- -- 73
2020-01-11 17:00:00 8.3 8 Este 13 Este 0 -- -- 65
2020-01-11 16:00:00 8.4 0 Calma 0 Calma 0 -- -- 63
2020-01-11 15:00:00 7.7 0 Calma 0 Calma 0 -- -- 67
2020-01-11 14:00:00 7.2 0 Calma 0 Calma 0 -- -- 70
2020-01-11 13:00:00 5.7 0 Calma 0 Calma 0 -- -- 75
2020-01-11 12:00:00 3.4 0 Calma 0 Calma 0 -- -- 80
2020-01-11 11:00:00 0.4 0 Calma 0 Calma 0 -- -- 90
2020-01-11 10:00:00 -3 0 Calma 0 Calma 0 -- -- 93
2020-01-11 09:00:00 -4.9 0 Calma -- -- 0 -- -- 92
2020-01-11 08:00:00 -4.6 0 Calma -- -- 0 -- -- 93
2020-01-11 07:00:00 -4.2 0 Calma -- -- 0 -- -- 92
2020-01-11 06:00:00 -3.8 0 Calma 0 Calma 0 -- -- 93
2020-01-11 05:00:00 -3.5 0 Calma -- -- 0 -- -- 93
2020-01-11 04:00:00 -3 0 Calma 0 Calma 0 -- -- 92
2020-01-11 03:00:00 -2.3 0 Calma -- -- 0 -- -- 92
2020-01-11 02:00:00 -1.9 0 Calma 0 Calma 0 -- -- 89
2020-01-11 01:00:00 -1.4 0 Calma 0 Calma 0 -- -- 90
2020-01-11 00:00:00 -0.6 0 Calma 0 Calma 0 -- -- 88
2020-01-10 23:00:00 -1.1 0 Calma 2 Oeste 0 -- -- 89
2020-01-10 22:00:00 -0.4 0 Calma 0 Calma 0 -- -- 89
2020-01-10 21:00:00 0.3 0 Calma 0 Calma 0 -- -- 84
2020-01-10 20:00:00 2.2 0 Calma 0 Calma 0 -- -- 78
2020-01-10 19:00:00 4.7 0 Calma 4 Nordeste 0 -- -- 70
2020-01-10 18:00:00 7.1 4 Nordeste 16 Norte 0 -- -- 64
2020-01-10 17:00:00 8.7 10 Nordeste 18 Nordeste 0 -- -- 56
2020-01-10 16:00:00 9.2 12 Nordeste 21 Este 0 -- -- 54
2020-01-10 15:00:00 9.1 12 Nordeste 22 Nordeste 0 -- -- 54
2020-01-10 14:00:00 8.8 12 Nordeste 22 Este 0 -- -- 57
2020-01-10 13:00:00 8.1 11 Nordeste 20 Nordeste 0 -- -- 58
2020-01-10 12:00:00 6.9 3 Norte 9 Norte 0 -- -- 65
2020-01-10 11:00:00 3.2 4 Sudoeste 10 Sur 0 -- -- 81
2020-01-10 10:00:00 0.2 5 Sudoeste 10 Sur 0 -- -- 88
2020-01-10 09:00:00 -0.8 7 Noroeste 10 Noroeste 0 -- -- 87
2020-01-10 08:00:00 -0.7 2 Oeste 6 Oeste 0 -- -- 86
2020-01-10 07:00:00 -0.1 6 Oeste 8 Oeste 0 -- -- 85
2020-01-10 06:00:00 0.4 4 Este 9 Este 0 -- -- 82
2020-01-10 05:00:00 1.5 2 Norte 20 Norte 0 -- -- 79
2020-01-10 04:00:00 0.4 4 Noroeste 14 Noroeste 0 -- -- 87
2020-01-10 03:00:00 0.6 8 Noroeste 10 Noroeste 0 -- -- 84
2020-01-10 02:00:00 1.1 5 Noroeste 8 Noroeste 0 -- -- 80
2020-01-10 01:00:00 2.4 6 Noroeste 12 Noroeste 0 -- -- 76
2020-01-10 00:00:00 4.2 4 Norte 31 Noroeste 0 -- -- 68
2020-01-09 23:00:00 3.6 10 Noroeste 24 Noroeste 0 -- -- 75
2020-01-09 22:00:00 5 19 Noroeste 31 Noroeste 0 -- -- 70
2020-01-09 21:00:00 5.1 4 Norte 35 Noroeste 0 -- -- 76
2020-01-09 20:00:00 6.5 19 Noroeste 26 Noroeste 0 -- -- 73
2020-01-09 19:00:00 6.7 4 Noroeste 31 Noroeste 0 -- -- 75
2020-01-09 18:00:00 9.9 11 Noroeste 32 Noroeste 0 -- -- 75
2020-01-09 17:00:00 9.6 17 Sudoeste 41 Sudoeste 0 -- -- 85
2020-01-09 16:00:00 9.7 26 Sudoeste 52 Sudoeste 0 -- -- 85
2020-01-09 15:00:00 9.9 31 Sudoeste 45 Sudoeste 0 -- -- 85
2020-01-09 14:00:00 11.5 30 Sudoeste 46 Sudoeste 0 -- -- 80
2020-01-09 13:00:00 11.3 24 Sudoeste 42 Sudoeste 0 -- -- 82
2020-01-09 12:00:00 4.1 4 Sudeste 8 Sudeste 0 -- -- 89
2020-01-09 11:00:00 1.1 2 Sudeste 4 Este 0 -- -- 93
2020-01-09 10:00:00 -1 0 Calma 4 Sudeste 0 -- -- 97
2020-01-09 09:00:00 -2.6 2 Norte 3 Norte 0 -- -- 96
2020-01-09 08:00:00 -2.2 0 Calma 4 Sudoeste 0 -- -- 95
2020-01-09 07:00:00 -2.1 3 Norte 5 Norte 0 -- -- 95
2020-01-09 06:00:00 -2 0 Calma 4 Norte 0 -- -- 95
2020-01-09 05:00:00 -1.8 2 Oeste 5 Este 0 -- -- 96
2020-01-09 04:00:00 -1.7 0 Calma 3 Sudoeste 0 -- -- 95
2020-01-09 03:00:00 -1.5 0 Calma 3 Sudeste 0 -- -- 95
2020-01-09 02:00:00 -1.1 3 Sudoeste 7 Norte 0 -- -- 95
2020-01-09 01:00:00 -0.8 0 Calma 7 Norte 0 -- -- 94
2020-01-09 00:00:00 -0.4 0 Calma 2 Norte 0 -- -- 94
2020-01-08 23:00:00 0 0 Calma 5 Norte 0 -- -- 92
2020-01-08 22:00:00 0.7 0 Calma 6 Norte 0 -- -- 91
2020-01-08 21:00:00 1.9 4 Norte 6 Norte 0 -- -- 88
2020-01-08 20:00:00 3.5 2 Norte 4 Sudeste 0 -- -- 84
2020-01-08 19:00:00 6.5 4 Sudeste 7 Este 0 -- -- 76
2020-01-08 18:00:00 9.4 4 Sudeste 5 Sudeste 0 -- -- 69
2020-01-08 17:00:00 10.7 0 Calma 4 Este 0 -- -- 61
2020-01-08 16:00:00 10.8 2 Sur 4 Sudeste 0 -- -- 63
2020-01-08 15:00:00 9 0 Calma 6 Este 0 -- -- 66
2020-01-08 14:00:00 7.1 3 Norte 6 Este 0 -- -- 72
2020-01-08 13:00:00 4.4 2 Sur 9 Este 0 -- -- 85
2020-01-08 12:00:00 0.8 4 Este 7 Este 0 -- -- 95
2020-01-08 11:00:00 -1.1 0 Calma 3 Sudeste 0.2 -- -- 97
2020-01-08 10:00:00 -2.7 0 Calma 2 Norte 0 -- -- 98
2020-01-08 09:00:00 -4.1 0 Calma -- -- 0 -- -- 97
2020-01-08 08:00:00 -4.3 0 Calma -- -- 0 -- -- 97
2020-01-08 07:00:00 -4.1 0 Calma 4 Norte 0 -- -- 98
2020-01-08 06:00:00 -3.8 0 Calma 4 Norte 0 -- -- 98
2020-01-08 05:00:00 -3.3 0 Calma 4 Norte 0 -- -- 98
2020-01-08 04:00:00 -3.2 0 Calma 3 Norte 0 -- -- 98
2020-01-08 03:00:00 -3.1 0 Calma 4 Norte 0 -- -- 98
2020-01-08 02:00:00 -3.2 0 Calma 2 Norte 0 -- -- 98
2020-01-08 01:00:00 -3.3 0 Calma 3 Norte 0 -- -- 98
2020-01-08 00:00:00 -2.9 0 Calma 3 Sur 0 -- -- 98
2020-01-07 23:00:00 -2.7 0 Calma 4 Sudeste 0 -- -- 97
2020-01-07 22:00:00 -2.5 2 Sudeste 4 Sudeste 0 -- -- 97
2020-01-07 21:00:00 -2.1 2 Sudeste 5 Sudeste 0 -- -- 96
2020-01-07 20:00:00 -0.7 2 Este 10 Sudeste 0 -- -- 94
2020-01-07 19:00:00 0.6 5 Sudeste 7 Este 0 -- -- 92
2020-01-07 18:00:00 2.5 3 Sudeste 10 Este 0 -- -- 88
2020-01-07 17:00:00 3.4 6 Este 11 Este 0 -- -- 86
2020-01-07 16:00:00 3.4 8 Este 13 Este 0 -- -- 86
2020-01-07 15:00:00 2.9 8 Este 14 Este 0 -- -- 98
2020-01-07 14:00:00 1.6 4 Sudeste 10 Este 0 -- -- 100
2020-01-07 13:00:00 -0.4 3 Este 8 Sudeste 0 -- -- 100
2020-01-07 12:00:00 -2.3 0 Calma -- -- 0.2 -- -- 99
2020-01-07 11:00:00 -3.6 0 Calma -- -- 0 -- -- 98
2020-01-07 10:00:00 -3.9 0 Calma -- -- 0 -- -- 98
2020-01-07 09:00:00 -4.1 0 Calma -- -- 0 -- -- 98
2020-01-07 08:00:00 -3.9 0 Calma -- -- 0 -- -- 98
2020-01-07 07:00:00 -3.6 0 Calma -- -- 0 -- -- 97
2020-01-07 06:00:00 -3.3 0 Calma -- -- 0 -- -- 99
2020-01-07 05:00:00 -2.9 0 Calma -- -- 0 -- -- 100
2020-01-07 04:00:00 -2.5 0 Calma -- -- 0 -- -- 99
2020-01-07 03:00:00 -1.7 0 Calma -- -- 0 -- -- 100
2020-01-07 02:00:00 -1.7 0 Calma -- -- 0 -- -- 100
2020-01-07 01:00:00 -1.6 0 Calma -- -- 0 -- -- 100
2020-01-07 00:00:00 -1.2 0 Calma -- -- 0 -- -- 100
2020-01-06 23:00:00 -1.5 0 Calma -- -- 0 -- -- 100
2020-01-06 22:00:00 -1.3 0 Calma -- -- 0 -- -- 99
2020-01-06 21:00:00 -1 0 Calma -- -- 0 -- -- 99
2020-01-06 20:00:00 -0.5 0 Calma -- -- 0 -- -- 99
2020-01-06 19:00:00 -0.2 0 Calma -- -- 0 -- -- 99
2020-01-06 18:00:00 -0.2 0 Calma 6 Norte 0 -- -- 99
2020-01-06 17:00:00 -0.1 0 Calma 3 Noroeste 0 -- -- 99
2020-01-06 16:00:00 -0.5 0 Calma -- -- 0 -- -- 99
2020-01-06 15:00:00 -1.1 0 Calma -- -- 0 -- -- 99
2020-01-06 14:00:00 -1.5 0 Calma -- -- 0 -- -- 99
2020-01-06 13:00:00 -2.1 0 Calma -- -- 0 -- -- 99
2020-01-06 12:00:00 -3 0 Calma -- -- 0 -- -- 98
2020-01-06 11:00:00 -3.7 0 Calma -- -- 0 -- -- 98
2020-01-06 10:00:00 -4.1 0 Calma -- -- 0 -- -- 97